Terminal Aerodrome Forecast
Issued by NWS

Home | Current Version | Previous Version | Text Only | Print | Product List | Glossary On
Versions: 1 2 3 4 5 6 7 8 9 10 11 12 13 14 15 16 17 18 19
000
FTUS44 KTSA 271200 AAA
TAFBVO
TAF AMD
KBVO 271255Z 2713/2812 VRB05KT 1 1/2SM -SN BR OVC019
      TEMPO 2713/2715 6SM -SN OVC060
     FM271500 34009KT P6SM OVC050
     FM280100 35004KT P6SM SCT100=

USA.gov is the U.S. government's official web portal to all federal, state and local government web resources and services.